createdAt,value
2023-02-27T00:00:17.316Z,5.73
2023-02-27T00:02:47.845Z,5.77
2023-02-27T00:05:16.370Z,5.82
2023-02-27T00:07:44.605Z,5.88
2023-02-27T00:10:17.606Z,5.91
2023-02-27T00:12:45.912Z,5.94
2023-02-27T00:15:15.940Z,5.94
2023-02-27T00:17:47.287Z,5.94
2023-02-27T00:20:16.346Z,5.95
2023-02-27T00:22:46.396Z,5.95
2023-02-27T00:25:14.646Z,5.95
2023-02-27T00:27:43.281Z,5.96
2023-02-27T00:30:13.445Z,5.97
2023-02-27T00:32:44.206Z,5.98
2023-02-27T00:35:13.145Z,5.98
2023-02-27T00:37:42.083Z,5.98
2023-02-27T00:40:11.456Z,5.99
2023-02-27T00:42:39.839Z,5.98
2023-02-27T00:45:09.478Z,5.97
2023-02-27T00:47:38.219Z,5.95
2023-02-27T00:50:06.840Z,5.89
2023-02-27T00:52:35.181Z,5.81
2023-02-27T00:55:03.193Z,5.73
2023-02-27T00:57:31.369Z,5.66
2023-02-27T00:59:59.854Z,5.63
2023-02-27T01:02:28.460Z,5.63
2023-02-27T01:04:57.421Z,5.66
2023-02-27T01:07:25.516Z,5.70
2023-02-27T01:09:54.731Z,5.72
2023-02-27T01:12:22.860Z,5.74
2023-02-27T01:14:51.496Z,5.73
2023-02-27T01:17:20.507Z,5.74
2023-02-27T01:19:48.775Z,5.76
2023-02-27T01:22:17.035Z,5.80
2023-02-27T01:24:47.483Z,5.84
2023-02-27T01:27:15.699Z,5.86
2023-02-27T01:29:45.160Z,5.88
2023-02-27T01:32:13.175Z,5.90
2023-02-27T01:34:41.535Z,5.92
2023-02-27T01:37:09.519Z,5.93
2023-02-27T01:39:37.802Z,5.93
2023-02-27T01:42:18.563Z,5.95
2023-02-27T01:45:12.320Z,5.95
2023-02-27T01:47:47.843Z,5.98
2023-02-27T01:50:16.575Z,5.97
2023-02-27T01:52:45.045Z,5.94
2023-02-27T01:55:14.154Z,5.93
2023-02-27T01:57:43.451Z,5.93
2023-02-27T02:00:12.655Z,5.90
2023-02-27T02:02:44.502Z,5.88
2023-02-27T02:05:15.369Z,5.86
2023-02-27T02:07:43.894Z,5.87
2023-02-27T02:10:12.811Z,5.89
2023-02-27T02:12:40.876Z,5.90
2023-02-27T02:15:13.494Z,5.87
2023-02-27T02:18:12.171Z,5.86
2023-02-27T02:21:12.968Z,5.84
2023-02-27T02:23:56.515Z,5.83
2023-02-27T02:26:33.612Z,5.80
2023-02-27T02:29:08.398Z,5.76
2023-02-27T02:31:59.226Z,5.74
2023-02-27T02:34:52.036Z,5.75
2023-02-27T02:37:35.129Z,5.73
2023-02-27T02:40:36.749Z,5.70
2023-02-27T02:43:25.014Z,5.68
2023-02-27T02:46:01.549Z,5.66
2023-02-27T02:48:33.204Z,5.67
2023-02-27T02:51:14.700Z,5.68
2023-02-27T02:53:51.782Z,5.69
2023-02-27T02:56:27.169Z,5.65
2023-02-27T02:59:11.075Z,5.57
2023-02-27T03:01:43.386Z,5.45
2023-02-27T03:04:30.625Z,5.32
2023-02-27T03:07:04.711Z,5.22
2023-02-27T03:09:36.582Z,5.21
2023-02-27T03:12:07.601Z,5.26
2023-02-27T03:14:43.447Z,5.32
2023-02-27T03:17:39.428Z,5.37
2023-02-27T03:20:09.857Z,5.42
2023-02-27T03:22:42.783Z,5.46
2023-02-27T03:25:11.807Z,5.49
2023-02-27T03:27:51.356Z,5.52
2023-02-27T03:30:31.094Z,5.56
2023-02-27T03:33:08.377Z,5.58
2023-02-27T03:36:12.284Z,5.60
2023-02-27T03:38:46.288Z,5.64
2023-02-27T03:41:21.112Z,5.66
2023-02-27T03:44:05.397Z,5.68
2023-02-27T03:46:34.978Z,5.67
2023-02-27T03:49:03.405Z,5.66
2023-02-27T03:51:32.621Z,5.65
2023-02-27T03:54:14.609Z,5.65
2023-02-27T03:56:50.657Z,5.65
2023-02-27T03:59:19.073Z,5.67
2023-02-27T04:01:50.456Z,5.70
2023-02-27T04:04:19.129Z,5.74
2023-02-27T04:07:25.005Z,5.78
2023-02-27T04:10:04.250Z,5.82
2023-02-27T04:13:03.380Z,5.84
2023-02-27T04:16:06.929Z,5.84
2023-02-27T04:18:50.694Z,5.84
2023-02-27T04:21:18.754Z,5.86
2023-02-27T04:23:57.898Z,5.86
2023-02-27T04:26:32.284Z,5.86
2023-02-27T04:29:08.116Z,5.80
2023-02-27T04:31:57.316Z,5.72
2023-02-27T04:34:39.070Z,5.67
2023-02-27T04:37:19.134Z,5.67
2023-02-27T04:40:00.761Z,5.68
2023-02-27T04:42:38.125Z,5.70
2023-02-27T04:45:08.615Z,5.72
2023-02-27T04:47:40.174Z,5.72
2023-02-27T04:50:14.505Z,5.69
2023-02-27T04:52:50.367Z,5.68
2023-02-27T04:55:27.244Z,5.72
2023-02-27T04:58:17.652Z,5.74
2023-02-27T05:00:48.139Z,5.78
2023-02-27T05:03:24.235Z,5.80
2023-02-27T05:05:53.938Z,5.80
2023-02-27T05:08:28.424Z,5.80
2023-02-27T05:11:09.606Z,5.80
2023-02-27T05:13:50.011Z,5.78
2023-02-27T05:16:24.038Z,5.73
2023-02-27T05:18:54.716Z,5.70
2023-02-27T05:21:34.795Z,5.69
2023-02-27T05:24:09.812Z,5.67
2023-02-27T05:27:02.989Z,5.65
2023-02-27T05:30:19.587Z,5.60
2023-02-27T05:33:00.367Z,5.58
2023-02-27T05:35:34.849Z,5.56
2023-02-27T05:38:08.255Z,5.56
2023-02-27T05:40:44.456Z,5.50
2023-02-27T05:43:20.311Z,5.47
2023-02-27T05:45:50.290Z,5.44
2023-02-27T05:48:24.957Z,5.42
2023-02-27T05:50:53.714Z,5.40
2023-02-27T05:53:22.483Z,5.39
2023-02-27T05:55:52.820Z,5.36
2023-02-27T05:58:44.065Z,5.35
2023-02-27T06:01:12.441Z,5.33
2023-02-27T06:03:40.755Z,5.31
2023-02-27T06:06:12.758Z,5.28
2023-02-27T06:08:40.987Z,5.25
2023-02-27T06:11:09.170Z,5.24
2023-02-27T06:13:37.253Z,5.24
2023-02-27T06:16:05.841Z,5.24
2023-02-27T06:18:34.152Z,5.25
2023-02-27T06:21:02.373Z,5.23
2023-02-27T06:23:34.157Z,5.20
2023-02-27T06:26:03.249Z,5.15
2023-02-27T06:28:31.367Z,5.11
2023-02-27T06:30:59.811Z,5.07
2023-02-27T06:33:27.906Z,5.04
2023-02-27T06:35:58.663Z,5.03
2023-02-27T06:38:27.222Z,5.01
2023-02-27T06:40:56.730Z,5.00
2023-02-27T06:43:24.820Z,4.96
2023-02-27T06:45:56.176Z,4.90
2023-02-27T06:48:24.456Z,4.87
2023-02-27T06:50:53.744Z,4.84
2023-02-27T06:53:23.816Z,4.83
2023-02-27T06:55:52.008Z,4.82
2023-02-27T06:58:21.151Z,4.84
2023-02-27T07:00:49.341Z,4.87
2023-02-27T07:03:17.458Z,4.89
2023-02-27T07:05:50.443Z,4.89
2023-02-27T07:08:18.820Z,4.91
2023-02-27T07:10:49.201Z,4.89
2023-02-27T07:13:19.688Z,4.84
2023-02-27T07:15:49.123Z,4.78
2023-02-27T07:18:17.321Z,4.70
2023-02-27T07:20:45.525Z,4.63
2023-02-27T07:23:13.921Z,4.59
2023-02-27T07:25:41.943Z,4.53
2023-02-27T07:28:10.208Z,4.51
2023-02-27T07:30:38.219Z,4.46
2023-02-27T07:33:07.329Z,4.44
2023-02-27T07:35:35.486Z,4.39
2023-02-27T07:38:03.841Z,4.41
2023-02-27T07:40:32.317Z,4.44
2023-02-27T07:43:05.860Z,4.45
2023-02-27T07:45:34.239Z,4.46
2023-02-27T07:48:02.405Z,4.43
2023-02-27T07:50:31.020Z,4.39
2023-02-27T07:52:59.095Z,4.36
2023-02-27T07:55:27.307Z,4.33
2023-02-27T07:57:55.517Z,4.28
2023-02-27T08:00:23.801Z,4.27
2023-02-27T08:02:51.966Z,4.27
2023-02-27T08:05:20.060Z,4.31
2023-02-27T08:07:48.774Z,4.35
2023-02-27T08:10:19.450Z,4.38
2023-02-27T08:12:48.506Z,4.38
2023-02-27T08:15:17.648Z,4.38
2023-02-27T08:17:46.838Z,4.35
2023-02-27T08:20:15.085Z,4.31
2023-02-27T08:22:43.184Z,4.29
2023-02-27T08:25:11.408Z,4.27
2023-02-27T08:27:39.552Z,4.28
2023-02-27T08:30:09.339Z,4.30
2023-02-27T08:32:38.725Z,4.26
2023-02-27T08:35:07.128Z,4.16
2023-02-27T08:37:35.725Z,4.15
2023-02-27T08:40:06.932Z,4.15
2023-02-27T08:42:35.091Z,4.17
2023-02-27T08:45:05.236Z,4.24
2023-02-27T08:47:33.777Z,4.25
2023-02-27T08:50:02.286Z,4.27
2023-02-27T08:52:30.447Z,4.30
2023-02-27T08:54:58.655Z,4.33
2023-02-27T08:57:27.252Z,4.35
2023-02-27T08:59:55.311Z,4.39
2023-02-27T09:02:26.120Z,4.38
2023-02-27T09:04:54.319Z,4.42
2023-02-27T09:07:22.400Z,4.42
2023-02-27T09:09:50.807Z,4.41
2023-02-27T09:12:21.518Z,4.38
2023-02-27T09:14:50.093Z,4.36
2023-02-27T09:17:21.194Z,4.33
2023-02-27T09:19:53.852Z,4.29
2023-02-27T09:22:23.214Z,4.30
2023-02-27T09:24:52.272Z,4.31
2023-02-27T09:27:20.310Z,4.32
2023-02-27T09:29:49.090Z,4.35
2023-02-27T09:32:17.362Z,4.39
2023-02-27T09:34:45.732Z,4.41
2023-02-27T09:37:13.995Z,4.39
2023-02-27T09:39:44.582Z,4.37
2023-02-27T09:42:21.300Z,4.36
2023-02-27T09:44:51.019Z,4.37
2023-02-27T09:47:26.808Z,4.36
2023-02-27T09:49:59.647Z,4.31
2023-02-27T09:52:28.660Z,4.31
2023-02-27T09:54:56.832Z,4.30
2023-02-27T09:57:32.050Z,4.29
2023-02-27T10:00:02.123Z,4.23
2023-02-27T10:02:56.215Z,4.21
2023-02-27T10:05:42.556Z,4.21
2023-02-27T10:09:28.423Z,4.22
2023-02-27T10:12:27.282Z,4.22
2023-02-27T10:15:03.227Z,4.21
2023-02-27T10:17:58.103Z,4.23
2023-02-27T10:20:32.482Z,4.19
2023-02-27T10:23:03.570Z,4.14
2023-02-27T10:25:33.865Z,4.13
2023-02-27T10:28:11.784Z,4.12
2023-02-27T10:30:40.150Z,4.08
2023-02-27T10:33:22.962Z,4.05
2023-02-27T10:35:53.664Z,4.00
2023-02-27T10:38:33.728Z,3.97
2023-02-27T10:41:02.537Z,4.03
2023-02-27T10:43:31.060Z,4.04
2023-02-27T10:46:02.930Z,4.02
2023-02-27T10:48:33.046Z,4.00
2023-02-27T10:51:23.085Z,3.98
2023-02-27T10:53:54.355Z,3.97
2023-02-27T10:56:25.865Z,3.97
2023-02-27T10:59:07.924Z,3.94
2023-02-27T11:01:47.786Z,3.93
2023-02-27T11:04:24.203Z,3.97
2023-02-27T11:06:53.449Z,4.00
2023-02-27T11:09:26.773Z,4.02
2023-02-27T11:11:54.942Z,4.00
2023-02-27T11:14:32.440Z,4.01
2023-02-27T11:17:02.100Z,4.01
2023-02-27T11:19:34.764Z,4.00
2023-02-27T11:22:03.037Z,3.98
2023-02-27T11:24:31.244Z,4.01
2023-02-27T11:27:03.804Z,4.02
2023-02-27T11:29:33.816Z,4.05
2023-02-27T11:32:10.305Z,4.09
2023-02-27T11:34:47.668Z,4.13
2023-02-27T11:37:32.645Z,4.12
2023-02-27T11:40:06.721Z,4.13
2023-02-27T11:42:35.954Z,4.11
2023-02-27T11:46:04.508Z,4.06
2023-02-27T11:48:46.907Z,4.01
2023-02-27T11:51:42.971Z,3.94
2023-02-27T11:54:15.907Z,3.82
2023-02-27T11:56:47.568Z,3.75
2023-02-27T11:59:23.157Z,3.68
2023-02-27T12:01:55.801Z,3.63
2023-02-27T12:04:33.927Z,3.63
2023-02-27T12:07:10.016Z,3.66
2023-02-27T12:13:43.784Z,3.74
2023-02-27T12:16:32.268Z,3.75
2023-02-27T12:19:23.994Z,3.75
2023-02-27T12:22:17.580Z,3.74
2023-02-27T12:24:55.990Z,3.73
2023-02-27T12:27:26.259Z,3.70
2023-02-27T12:30:15.303Z,3.64
2023-02-27T12:32:45.385Z,3.67
2023-02-27T12:35:28.992Z,3.72
2023-02-27T12:37:57.438Z,3.74
2023-02-27T12:40:41.456Z,3.74
2023-02-27T12:43:15.769Z,3.73
2023-02-27T12:45:53.982Z,3.69
2023-02-27T12:48:31.098Z,3.68
2023-02-27T12:51:19.882Z,3.73
2023-02-27T12:54:06.247Z,3.76
2023-02-27T12:56:56.713Z,3.73
2023-02-27T12:59:30.928Z,3.71
2023-02-27T13:02:26.916Z,3.66
2023-02-27T13:05:04.656Z,3.63
2023-02-27T13:07:38.878Z,3.61
2023-02-27T13:10:28.781Z,3.60
2023-02-27T13:13:22.802Z,3.60
2023-02-27T13:16:01.668Z,3.58
2023-02-27T13:18:47.271Z,3.51
2023-02-27T13:21:36.195Z,3.46
2023-02-27T13:24:26.910Z,3.45
2023-02-27T13:26:59.904Z,3.46
2023-02-27T13:29:55.173Z,3.48
2023-02-27T13:32:43.738Z,3.51
2023-02-27T13:35:33.534Z,3.53
2023-02-27T13:38:44.921Z,3.49
2023-02-27T13:41:28.007Z,3.41
2023-02-27T13:43:57.357Z,3.35
2023-02-27T13:46:30.151Z,3.35
2023-02-27T13:49:05.894Z,3.31
2023-02-27T13:51:40.070Z,3.31
2023-02-27T13:54:09.777Z,3.33
2023-02-27T13:56:46.782Z,3.35
2023-02-27T13:59:22.742Z,3.36
2023-02-27T14:02:01.770Z,3.38
2023-02-27T14:04:33.032Z,3.41
2023-02-27T14:07:12.450Z,3.46
2023-02-27T14:09:42.896Z,3.50
2023-02-27T14:12:30.917Z,3.53
2023-02-27T14:19:44.325Z,3.52
2023-02-27T14:22:12.550Z,3.48
2023-02-27T14:24:49.677Z,3.45
2023-02-27T14:27:24.172Z,3.43
2023-02-27T14:29:54.557Z,3.43
2023-02-27T14:32:25.725Z,3.44
2023-02-27T14:34:54.050Z,3.45
2023-02-27T14:37:23.687Z,3.45
2023-02-27T14:39:53.089Z,3.48
2023-02-27T14:42:53.614Z,3.50
2023-02-27T14:45:24.567Z,3.44
2023-02-27T14:47:52.846Z,3.38
2023-02-27T14:50:37.366Z,3.35
2023-02-27T14:53:07.337Z,3.36
2023-02-27T14:55:37.507Z,3.38
2023-02-27T14:58:18.241Z,3.40
2023-02-27T15:00:58.257Z,3.39
2023-02-27T15:03:47.498Z,3.36
2023-02-27T15:06:45.700Z,3.38
2023-02-27T15:09:42.996Z,3.37
2023-02-27T15:12:17.406Z,3.34
2023-02-27T15:15:04.955Z,3.31
2023-02-27T15:17:40.793Z,3.30
2023-02-27T15:25:47.092Z,3.46
2023-02-27T15:28:24.173Z,3.46
2023-02-27T15:30:53.048Z,3.49
2023-02-27T15:33:28.992Z,3.52
2023-02-27T15:35:57.567Z,3.50
2023-02-27T15:38:34.401Z,3.47
2023-02-27T15:41:03.263Z,3.43
2023-02-27T15:43:31.525Z,3.45
2023-02-27T15:46:00.450Z,3.45
2023-02-27T15:48:29.930Z,3.42
2023-02-27T15:50:58.647Z,3.42
2023-02-27T15:53:28.942Z,3.45
2023-02-27T15:56:04.402Z,3.46
2023-02-27T15:59:00.198Z,3.41
2023-02-27T16:01:32.531Z,3.39
2023-02-27T16:04:03.417Z,3.38
2023-02-27T16:06:34.954Z,3.33
2023-02-27T16:09:23.054Z,3.25
2023-02-27T16:12:30.117Z,3.20
2023-02-27T16:15:19.826Z,3.17
2023-02-27T16:18:15.398Z,3.21
2023-02-27T16:20:45.335Z,3.22
2023-02-27T16:23:20.863Z,3.21
2023-02-27T16:30:34.274Z,3.27
2023-02-27T16:42:15.365Z,3.44
2023-02-27T16:44:45.208Z,3.42
2023-02-27T16:47:13.644Z,3.40
2023-02-27T16:49:44.437Z,3.38
2023-02-27T16:52:12.750Z,3.33
2023-02-27T16:54:40.943Z,3.29
2023-02-27T16:57:09.844Z,3.28
2023-02-27T16:59:42.407Z,3.27
2023-02-27T17:02:13.207Z,3.23
2023-02-27T17:04:47.014Z,3.21
2023-02-27T17:07:16.306Z,3.22
2023-02-27T17:09:45.103Z,3.26
2023-02-27T17:12:15.755Z,3.32
2023-02-27T17:14:45.496Z,3.38
2023-02-27T17:17:13.752Z,3.43
2023-02-27T17:19:41.859Z,3.45
2023-02-27T17:22:10.754Z,3.45
2023-02-27T17:24:40.092Z,3.43
2023-02-27T17:27:08.672Z,3.41
2023-02-27T17:29:38.606Z,3.40
2023-02-27T17:32:07.612Z,3.39
2023-02-27T17:34:35.997Z,3.35
2023-02-27T17:37:04.433Z,3.34
2023-02-27T17:39:33.537Z,3.34
2023-02-27T17:42:01.662Z,3.36
2023-02-27T17:44:29.798Z,3.37
2023-02-27T17:47:00.864Z,3.36
2023-02-27T17:49:29.071Z,3.30
2023-02-27T17:52:00.687Z,3.27
2023-02-27T17:54:28.892Z,3.25
2023-02-27T17:56:57.629Z,3.24
2023-02-27T17:59:25.701Z,3.21
2023-02-27T18:01:55.573Z,3.20
2023-02-27T18:04:23.987Z,3.19
2023-02-27T18:06:52.163Z,3.14
2023-02-27T18:09:21.626Z,3.06
2023-02-27T18:11:49.997Z,3.05
2023-02-27T18:14:18.219Z,3.05
2023-02-27T18:16:46.700Z,3.06
2023-02-27T18:19:14.714Z,3.08
2023-02-27T18:21:44.609Z,3.10
2023-02-27T18:24:15.505Z,3.10
2023-02-27T18:26:43.645Z,3.08
2023-02-27T18:29:11.996Z,3.04
2023-02-27T18:31:42.919Z,3.03
2023-02-27T18:34:11.287Z,3.04
2023-02-27T18:36:39.570Z,2.97
2023-02-27T18:39:07.896Z,2.89
2023-02-27T18:51:03.246Z,2.75
2023-02-27T18:53:35.401Z,2.71
2023-02-27T18:56:04.625Z,2.66
2023-02-27T18:58:34.764Z,2.60
2023-02-27T19:01:04.203Z,2.60
2023-02-27T19:03:32.404Z,2.66
2023-02-27T19:06:00.616Z,2.71
2023-02-27T19:08:29.257Z,2.77
2023-02-27T19:10:58.129Z,2.82
2023-02-27T19:13:26.260Z,2.88
2023-02-27T19:15:58.433Z,2.96
2023-02-27T19:18:26.454Z,3.05
2023-02-27T19:20:56.411Z,3.10
2023-02-27T19:23:25.656Z,3.14
2023-02-27T19:26:00.688Z,3.17
2023-02-27T19:28:28.767Z,3.17
2023-02-27T19:30:58.305Z,3.14
2023-02-27T19:33:26.541Z,3.15
2023-02-27T19:35:56.872Z,3.14
2023-02-27T19:38:24.945Z,3.09
2023-02-27T19:40:53.315Z,3.03
2023-02-27T19:43:21.718Z,3.04
2023-02-27T19:45:53.992Z,3.08
2023-02-27T19:48:22.098Z,3.13
2023-02-27T19:59:50.790Z,3.13
2023-02-27T20:02:18.898Z,3.16
2023-02-27T20:04:47.391Z,3.22
2023-02-27T20:07:15.358Z,3.26
2023-02-27T20:09:43.335Z,3.27
2023-02-27T20:12:11.836Z,3.26
2023-02-27T20:14:41.078Z,3.21
2023-02-27T20:17:09.361Z,3.20
2023-02-27T20:19:37.358Z,3.18
2023-02-27T20:22:05.579Z,3.18
2023-02-27T20:24:33.623Z,3.16
2023-02-27T20:27:04.642Z,3.14
2023-02-27T20:29:32.723Z,3.14
2023-02-27T20:32:01.386Z,3.12
2023-02-27T20:34:30.348Z,3.09
2023-02-27T20:36:58.504Z,3.05
2023-02-27T20:39:28.661Z,3.05
2023-02-27T20:41:57.164Z,3.05
2023-02-27T20:44:25.111Z,3.05
2023-02-27T20:46:53.339Z,3.07
2023-02-27T20:49:27.774Z,3.08
2023-02-27T20:51:56.166Z,3.05
2023-02-27T20:54:24.534Z,2.99
2023-02-27T20:56:52.988Z,2.94
2023-02-27T20:59:21.998Z,2.93
2023-02-27T21:01:52.752Z,2.91
2023-02-27T21:04:43.264Z,2.89
2023-02-27T21:07:13.374Z,2.90
2023-02-27T21:09:42.255Z,2.90
2023-02-27T21:12:10.360Z,2.88
2023-02-27T21:14:38.596Z,2.89
2023-02-27T21:17:06.846Z,2.86
2023-02-27T21:19:39.959Z,2.84
2023-02-27T21:22:11.142Z,2.84
2023-02-27T21:24:39.309Z,2.83
2023-02-27T21:27:07.557Z,2.78
2023-02-27T21:29:36.306Z,2.77
2023-02-27T21:32:04.798Z,2.76
2023-02-27T21:34:34.255Z,2.77
2023-02-27T21:37:06.281Z,2.78
2023-02-27T21:39:50.638Z,2.78
2023-02-27T21:42:18.815Z,2.77
2023-02-27T21:44:47.190Z,2.74
2023-02-27T21:47:17.243Z,2.70
2023-02-27T21:49:47.035Z,2.67
2023-02-27T21:52:15.059Z,2.66
2023-02-27T21:54:43.161Z,2.65
2023-02-27T21:57:11.143Z,2.62
2023-02-27T21:59:42.458Z,2.61
2023-02-27T22:02:11.167Z,2.58
2023-02-27T22:04:39.400Z,2.57
2023-02-27T22:07:08.430Z,2.57
2023-02-27T22:09:39.070Z,2.59
2023-02-27T22:12:07.163Z,2.62
2023-02-27T22:14:35.457Z,2.66
2023-02-27T22:17:05.869Z,2.68
2023-02-27T22:19:33.965Z,2.66
2023-02-27T22:22:02.091Z,2.66
2023-02-27T22:24:30.291Z,2.64
2023-02-27T22:26:58.538Z,2.66
2023-02-27T22:29:27.324Z,2.66
2023-02-27T22:31:55.617Z,2.69
2023-02-27T22:34:24.050Z,2.70
2023-02-27T22:36:53.275Z,2.69
2023-02-27T22:39:26.085Z,2.61
2023-02-27T22:41:55.958Z,2.52
2023-02-27T22:44:24.894Z,2.47
2023-02-27T22:46:54.648Z,2.38
2023-02-27T22:49:23.565Z,2.30
2023-02-27T22:51:52.448Z,2.25
2023-02-27T22:54:21.668Z,2.23
2023-02-27T22:56:51.647Z,2.20
2023-02-27T22:59:30.698Z,2.16
2023-02-27T23:01:59.503Z,2.14
2023-02-27T23:04:27.925Z,2.12
2023-02-27T23:06:56.549Z,2.13
2023-02-27T23:09:26.209Z,2.13
2023-02-27T23:11:55.113Z,2.13
2023-02-27T23:14:23.720Z,2.15
2023-02-27T23:16:51.873Z,2.15
2023-02-27T23:19:20.561Z,2.20
2023-02-27T23:21:54.860Z,2.26
2023-02-27T23:24:22.813Z,2.26
2023-02-27T23:26:52.361Z,2.25
2023-02-27T23:29:20.869Z,2.27
2023-02-27T23:31:49.252Z,2.30
2023-02-27T23:34:18.304Z,2.32
2023-02-27T23:36:46.438Z,2.34
2023-02-27T23:39:14.513Z,2.31
2023-02-27T23:41:43.062Z,2.27
2023-02-27T23:44:11.151Z,2.25
2023-02-27T23:46:40.770Z,2.23
2023-02-27T23:49:12.348Z,2.19
2023-02-27T23:51:41.499Z,2.15
2023-02-27T23:54:10.707Z,2.16
2023-02-27T23:56:39.142Z,2.20
2023-02-27T23:59:07.611Z,2.17
